createdAt,value
2018-08-16T00:00:00.368Z,100231.44
2018-08-16T00:02:26.320Z,100226.23
2018-08-16T00:04:52.291Z,100225.75
2018-08-16T00:07:18.229Z,100224.69
2018-08-16T00:09:44.193Z,100222.22
2018-08-16T00:12:10.162Z,100222.08
2018-08-16T00:14:36.118Z,100214.03
2018-08-16T00:17:02.089Z,100221.45
2018-08-16T00:19:28.035Z,100214.56
2018-08-16T00:21:53.985Z,100214.16
2018-08-16T00:24:19.921Z,100217.73
2018-08-16T00:26:45.869Z,100218.66
2018-08-16T00:29:11.821Z,100214.85
2018-08-16T00:31:37.868Z,100215.37
2018-08-16T00:34:03.814Z,100215.45
2018-08-16T00:36:29.786Z,100214.58
2018-08-16T00:38:55.757Z,100213.77
2018-08-16T00:41:21.705Z,100207.48
2018-08-16T00:43:47.647Z,100212.01
2018-08-16T00:46:13.605Z,100216.23
2018-08-16T00:48:39.542Z,100214.28
2018-08-16T00:51:05.500Z,100217.83
2018-08-16T00:53:31.433Z,100210.77
2018-08-16T00:55:57.437Z,100211.44
2018-08-16T00:58:23.389Z,100217.09
2018-08-16T01:00:49.551Z,100214.31
2018-08-16T01:03:15.848Z,100215.30
2018-08-16T01:05:41.817Z,100207.95
2018-08-16T01:08:07.752Z,100208.43
2018-08-16T01:10:33.710Z,100208.87
2018-08-16T01:12:59.636Z,100208.22
2018-08-16T01:15:25.641Z,100209.58
2018-08-16T01:17:51.568Z,100209.27
2018-08-16T01:20:17.534Z,100208.35
2018-08-16T01:22:43.483Z,100212.14
2018-08-16T01:25:09.433Z,100205.27
2018-08-16T01:27:35.357Z,100204.48
2018-08-16T01:30:01.308Z,100202.81
2018-08-16T01:32:27.260Z,100206.23
2018-08-16T01:34:53.180Z,100207.59
2018-08-16T01:37:19.129Z,100204.25
2018-08-16T01:39:45.083Z,100201.84
2018-08-16T01:42:11.024Z,100203.95
2018-08-16T01:44:36.960Z,100208.73
2018-08-16T01:47:02.880Z,100203.10
2018-08-16T01:49:28.819Z,100201.47
2018-08-16T01:51:54.771Z,100203.67
2018-08-16T01:54:20.697Z,100198.19
2018-08-16T01:56:46.639Z,100196.39
2018-08-16T01:59:12.564Z,100193.42
2018-08-16T02:01:38.506Z,100198.30
2018-08-16T02:06:30.219Z,100182.14
2018-08-16T02:08:56.157Z,100180.40
2018-08-16T02:11:22.087Z,100192.77
2018-08-16T02:13:48.037Z,100184.20
2018-08-16T02:16:13.994Z,100186.97
2018-08-16T02:18:39.930Z,100183.70
2018-08-16T02:21:05.881Z,100184.46
2018-08-16T02:23:31.848Z,100188.00
2018-08-16T02:25:57.797Z,100189.72
2018-08-16T02:28:23.762Z,100191.30
2018-08-16T02:30:49.705Z,100202.22
2018-08-16T02:33:15.651Z,100195.72
2018-08-16T02:35:41.585Z,100190.03
2018-08-16T02:38:07.545Z,100196.39
2018-08-16T02:40:33.477Z,100201.41
2018-08-16T02:42:59.409Z,100202.89
2018-08-16T02:45:25.362Z,100194.53
2018-08-16T02:47:51.334Z,100200.05
2018-08-16T02:50:17.276Z,100195.91
2018-08-16T02:52:43.225Z,100197.59
2018-08-16T02:55:09.177Z,100201.35
2018-08-16T02:57:35.152Z,100192.80
2018-08-16T03:00:01.080Z,100189.82
2018-08-16T03:02:27.051Z,100192.64
2018-08-16T03:04:52.985Z,100187.50
2018-08-16T03:07:18.973Z,100197.31
2018-08-16T03:09:44.943Z,100189.11
2018-08-16T03:12:10.959Z,100192.23
2018-08-16T03:14:36.856Z,100190.31
2018-08-16T03:17:02.797Z,100190.52
2018-08-16T03:19:28.739Z,100190.81
2018-08-16T03:21:54.717Z,100192.23
2018-08-16T03:24:20.732Z,100191.11
2018-08-16T03:26:46.698Z,100190.61
2018-08-16T03:29:12.698Z,100190.34
2018-08-16T03:31:43.420Z,100194.44
2018-08-16T03:34:09.370Z,100193.92
2018-08-16T03:36:35.296Z,100187.48
2018-08-16T03:39:01.259Z,100192.02
2018-08-16T03:41:28.274Z,100198.85
2018-08-16T03:43:55.410Z,100194.27
2018-08-16T03:46:21.651Z,100197.52
2018-08-16T03:48:48.117Z,100192.38
2018-08-16T03:51:15.031Z,100198.46
2018-08-16T03:53:41.774Z,100196.99
2018-08-16T03:56:07.736Z,100195.20
2018-08-16T03:58:33.696Z,100200.13
2018-08-16T04:00:59.629Z,100200.48
2018-08-16T04:03:25.571Z,100193.88
2018-08-16T04:05:51.506Z,100196.16
2018-08-16T04:08:17.468Z,100195.28
2018-08-16T04:10:43.404Z,100194.62
2018-08-16T04:13:09.364Z,100199.45
2018-08-16T04:15:35.308Z,100200.20
2018-08-16T04:18:01.278Z,100204.97
2018-08-16T04:20:27.221Z,100202.63
2018-08-16T04:22:53.185Z,100196.80
2018-08-16T04:25:19.120Z,100196.52
2018-08-16T04:27:45.068Z,100195.78
2018-08-16T04:30:11.016Z,100191.30
2018-08-16T04:32:36.978Z,100199.02
2018-08-16T04:35:02.969Z,100200.98
2018-08-16T04:37:28.895Z,100203.37
2018-08-16T04:39:54.836Z,100200.26
2018-08-16T04:42:20.786Z,100199.69
2018-08-16T04:44:46.759Z,100203.84
2018-08-16T04:47:12.689Z,100201.17
2018-08-16T04:49:38.616Z,100202.59
2018-08-16T04:52:04.597Z,100198.62
2018-08-16T04:54:30.552Z,100199.08
2018-08-16T04:56:56.586Z,100198.08
2018-08-16T04:59:22.481Z,100202.03
2018-08-16T05:01:50.553Z,100198.36
2018-08-16T05:04:18.609Z,100203.43
2018-08-16T05:06:44.674Z,100192.42
2018-08-16T05:09:10.608Z,100199.36
2018-08-16T05:11:36.578Z,100190.72
2018-08-16T05:14:02.523Z,100190.06
2018-08-16T05:16:28.472Z,100189.67
2018-08-16T05:18:54.448Z,100187.09
2018-08-16T05:21:20.387Z,100192.29
2018-08-16T05:23:46.416Z,100191.86
2018-08-16T05:26:12.323Z,100185.02
2018-08-16T05:28:38.288Z,100192.72
2018-08-16T05:31:04.250Z,100199.33
2018-08-16T05:33:30.198Z,100194.89
2018-08-16T05:35:56.148Z,100195.03
2018-08-16T05:38:22.089Z,100195.90
2018-08-16T05:40:48.053Z,100197.89
2018-08-16T05:43:14.103Z,100199.40
2018-08-16T05:45:40.031Z,100194.16
2018-08-16T05:48:06.033Z,100193.33
2018-08-16T05:50:32.097Z,100195.56
2018-08-16T05:52:58.079Z,100192.23
2018-08-16T05:55:24.069Z,100188.48
2018-08-16T05:57:50.008Z,100186.86
2018-08-16T06:00:15.936Z,100181.48
2018-08-16T06:02:41.886Z,100179.58
2018-08-16T06:05:07.855Z,100183.72
2018-08-16T06:07:33.921Z,100181.76
2018-08-16T06:09:59.808Z,100184.18
2018-08-16T06:12:25.744Z,100186.61
2018-08-16T06:14:51.760Z,100185.23
2018-08-16T06:17:17.703Z,100183.65
2018-08-16T06:19:43.743Z,100188.16
2018-08-16T06:22:09.690Z,100183.06
2018-08-16T06:24:35.629Z,100182.49
2018-08-16T06:27:01.595Z,100185.33
2018-08-16T06:29:27.568Z,100187.22
2018-08-16T06:31:58.804Z,100191.44
2018-08-16T06:34:24.780Z,100188.70
2018-08-16T06:36:50.754Z,100186.23
2018-08-16T06:39:16.740Z,100186.28
2018-08-16T06:41:42.674Z,100187.58
2018-08-16T06:44:08.609Z,100181.28
2018-08-16T06:46:34.555Z,100188.24
2018-08-16T06:49:00.497Z,100182.50
2018-08-16T06:51:26.430Z,100181.39
2018-08-16T06:53:52.355Z,100174.00
2018-08-16T06:56:18.316Z,100174.91
2018-08-16T06:58:44.279Z,100177.66
2018-08-16T07:01:10.235Z,100172.70
2018-08-16T07:03:36.185Z,100165.34
2018-08-16T07:06:02.140Z,100174.80
2018-08-16T07:08:28.152Z,100172.95
2018-08-16T07:10:54.108Z,100170.84
2018-08-16T07:13:20.030Z,100169.66
2018-08-16T07:15:45.993Z,100175.55
2018-08-16T07:18:11.944Z,100167.59
2018-08-16T07:20:37.880Z,100173.84
2018-08-16T07:23:03.846Z,100168.23
2018-08-16T07:25:29.814Z,100165.87
2018-08-16T07:27:55.766Z,100165.80
2018-08-16T07:30:21.724Z,100173.11
2018-08-16T07:32:47.659Z,100166.42
2018-08-16T07:35:13.607Z,100167.67
2018-08-16T07:37:39.540Z,100169.33
2018-08-16T07:40:05.528Z,100170.61
2018-08-16T07:42:31.472Z,100166.80
2018-08-16T07:44:57.454Z,100168.88
2018-08-16T07:47:23.414Z,100168.77
2018-08-16T07:49:49.352Z,100166.19
2018-08-16T07:52:15.302Z,100166.13
2018-08-16T07:54:41.236Z,100160.75
2018-08-16T07:57:07.257Z,100161.86
2018-08-16T07:59:33.140Z,100167.31
2018-08-16T08:01:59.070Z,100158.29
2018-08-16T08:04:25.025Z,100154.89
2018-08-16T08:06:50.972Z,100153.97
2018-08-16T08:09:16.980Z,100156.13
2018-08-16T08:11:42.908Z,100159.84
2018-08-16T08:14:08.852Z,100159.21
2018-08-16T08:16:34.808Z,100158.27
2018-08-16T08:19:00.749Z,100151.23
2018-08-16T08:21:26.687Z,100154.56
2018-08-16T08:23:52.686Z,100150.70
2018-08-16T08:26:18.652Z,100144.45
2018-08-16T08:28:44.576Z,100145.87
2018-08-16T08:31:10.530Z,100140.18
2018-08-16T08:33:36.473Z,100140.42
2018-08-16T08:36:02.435Z,100135.40
2018-08-16T08:38:28.404Z,100122.52
2018-08-16T08:40:54.629Z,100127.96
2018-08-16T08:43:20.580Z,100120.70
2018-08-16T08:45:47.652Z,100112.67
2018-08-16T08:48:13.624Z,100112.19
2018-08-16T08:50:39.583Z,100106.62
2018-08-16T08:53:05.528Z,100109.79
2018-08-16T08:55:31.503Z,100110.17
2018-08-16T08:57:57.476Z,100109.91
2018-08-16T09:00:23.428Z,100102.06
2018-08-16T09:02:49.377Z,100100.08
2018-08-16T09:05:15.345Z,100100.05
2018-08-16T09:07:41.284Z,100098.97
2018-08-16T09:10:07.233Z,100095.26
2018-08-16T09:12:33.168Z,100093.41
2018-08-16T09:14:59.118Z,100090.27
2018-08-16T09:17:25.111Z,100081.26
2018-08-16T09:19:51.128Z,100076.76
2018-08-16T09:22:20.325Z,100076.66
2018-08-16T09:24:46.277Z,100070.55
2018-08-16T09:27:12.241Z,100071.31
2018-08-16T09:29:38.177Z,100061.25
2018-08-16T09:32:04.126Z,100068.45
2018-08-16T09:34:30.063Z,100061.05
2018-08-16T09:36:55.998Z,100056.66
2018-08-16T09:39:22.013Z,100053.51
2018-08-16T09:41:47.898Z,100055.47
2018-08-16T09:44:13.849Z,100051.17
2018-08-16T09:46:39.819Z,100053.85
2018-08-16T09:49:05.747Z,100049.84
2018-08-16T09:51:31.709Z,100053.02
2018-08-16T09:53:57.668Z,100050.63
2018-08-16T09:56:23.639Z,100043.30
2018-08-16T09:58:49.590Z,100031.75
2018-08-16T10:01:15.523Z,100033.20
2018-08-16T10:03:41.486Z,100027.78
2018-08-16T10:06:07.412Z,100025.96
2018-08-16T10:08:33.371Z,100015.97
2018-08-16T10:10:59.331Z,100018.11
2018-08-16T10:13:25.377Z,100008.91
2018-08-16T10:15:51.286Z,100009.94
2018-08-16T10:18:17.428Z,100003.64
2018-08-16T10:20:43.405Z,100010.35
2018-08-16T10:23:09.326Z,99996.00
2018-08-16T10:25:35.304Z,100010.23
2018-08-16T10:28:01.253Z,100004.70
2018-08-16T10:30:27.212Z,100003.65
2018-08-16T10:32:53.162Z,100007.16
2018-08-16T10:35:19.140Z,100009.95
2018-08-16T10:37:45.102Z,100006.13
2018-08-16T10:40:11.059Z,99997.86
2018-08-16T10:42:36.989Z,99995.28
2018-08-16T10:45:02.957Z,99983.11
2018-08-16T10:47:28.890Z,99986.86
2018-08-16T10:49:54.892Z,99984.66
2018-08-16T10:52:20.840Z,99976.22
2018-08-16T10:54:46.800Z,99984.78
2018-08-16T10:57:12.741Z,99978.23
2018-08-16T10:59:38.705Z,99974.22
2018-08-16T11:02:04.646Z,99969.63
2018-08-16T11:04:30.610Z,99975.95
2018-08-16T11:06:56.597Z,99980.30
2018-08-16T11:09:22.555Z,99970.60
2018-08-16T11:11:48.512Z,99961.66
2018-08-16T11:14:14.456Z,99970.42
2018-08-16T11:16:40.385Z,99970.48
2018-08-16T11:19:06.428Z,99962.19
2018-08-16T11:21:32.386Z,99955.44
2018-08-16T11:23:58.416Z,99955.72
2018-08-16T11:26:24.877Z,99957.97
2018-08-16T11:28:50.845Z,99956.45
2018-08-16T11:31:16.780Z,99958.73
2018-08-16T11:33:42.732Z,99947.44
2018-08-16T11:36:08.670Z,99940.41
2018-08-16T11:38:34.597Z,99942.16
2018-08-16T11:41:00.567Z,99933.62
2018-08-16T11:43:26.502Z,99937.72
2018-08-16T11:45:52.463Z,99941.98
2018-08-16T11:48:18.422Z,99939.33
2018-08-16T11:50:44.396Z,99936.73
2018-08-16T11:53:11.429Z,99930.66
2018-08-16T11:55:37.417Z,99931.91
2018-08-16T11:58:03.757Z,99931.25
2018-08-16T12:00:29.717Z,99929.73
2018-08-16T12:02:55.969Z,99926.49
2018-08-16T12:05:22.199Z,99921.38
2018-08-16T12:07:48.152Z,99922.06
2018-08-16T12:10:14.143Z,99912.00
2018-08-16T12:12:40.104Z,99914.12
2018-08-16T12:15:06.079Z,99916.05
2018-08-16T12:17:32.048Z,99906.80
2018-08-16T12:19:58.005Z,99911.28
2018-08-16T12:22:23.948Z,99908.09
2018-08-16T12:24:49.902Z,99911.07
2018-08-16T12:27:15.901Z,99901.92
2018-08-16T12:29:41.862Z,99900.61
2018-08-16T12:32:07.797Z,99894.91
2018-08-16T12:34:33.749Z,99891.48
2018-08-16T12:36:59.708Z,99898.91
2018-08-16T12:39:25.655Z,99893.74
2018-08-16T12:41:52.363Z,99893.50
2018-08-16T12:44:17.569Z,99891.36
2018-08-16T12:46:43.591Z,99885.99
2018-08-16T12:49:09.563Z,99888.44
2018-08-16T12:51:35.564Z,99886.94
2018-08-16T12:54:01.510Z,99880.13
2018-08-16T12:56:27.475Z,99875.84
2018-08-16T12:58:53.408Z,99874.83
2018-08-16T13:01:19.400Z,99870.30
2018-08-16T13:03:45.347Z,99869.03
2018-08-16T13:06:11.286Z,99857.18
2018-08-16T13:08:37.228Z,99851.59
2018-08-16T13:13:35.516Z,99849.45
2018-08-16T13:16:01.522Z,99842.94
2018-08-16T13:18:27.461Z,99844.48
2018-08-16T13:20:53.445Z,99846.44
2018-08-16T13:23:19.486Z,99835.74
2018-08-16T13:25:45.423Z,99844.27
2018-08-16T13:28:11.392Z,99838.80
2018-08-16T13:30:37.348Z,99834.72
2018-08-16T13:33:03.290Z,99831.38
2018-08-16T13:35:29.286Z,99823.35
2018-08-16T13:37:55.257Z,99824.05
2018-08-16T13:40:21.214Z,99825.75
2018-08-16T13:42:47.197Z,99818.36
2018-08-16T13:45:13.164Z,99809.32
2018-08-16T13:47:39.144Z,99817.23
2018-08-16T13:50:05.101Z,99816.97
2018-08-16T13:52:31.063Z,99813.72
2018-08-16T13:54:57.040Z,99807.69
2018-08-16T13:57:23.007Z,99800.41
2018-08-16T13:59:48.960Z,99806.84
2018-08-16T14:02:14.914Z,99800.75
2018-08-16T14:04:40.873Z,99797.76
2018-08-16T14:07:06.839Z,99798.28
2018-08-16T14:09:32.838Z,99785.97
2018-08-16T14:11:58.773Z,99794.89
2018-08-16T14:14:24.724Z,99803.47
2018-08-16T14:16:50.788Z,99800.91
2018-08-16T14:19:16.783Z,99794.86
2018-08-16T14:21:42.831Z,99797.55
2018-08-16T14:24:08.782Z,99796.86
2018-08-16T14:26:34.752Z,99790.11
2018-08-16T14:29:00.699Z,99789.71
2018-08-16T14:31:26.617Z,99785.14
2018-08-16T14:33:52.562Z,99780.86
2018-08-16T14:36:18.515Z,99787.28
2018-08-16T14:38:44.496Z,99778.87
2018-08-16T14:41:10.452Z,99775.05
2018-08-16T14:43:36.373Z,99769.72
2018-08-16T14:46:02.365Z,99780.97
2018-08-16T14:48:28.349Z,99768.11
2018-08-16T14:50:54.319Z,99764.37
2018-08-16T14:53:20.305Z,99770.52
2018-08-16T14:55:46.264Z,99760.21
2018-08-16T14:58:12.218Z,99759.02
2018-08-16T15:00:38.165Z,99759.59
2018-08-16T15:03:04.099Z,99757.67
2018-08-16T15:05:30.064Z,99762.28
2018-08-16T15:07:56.019Z,99763.47
2018-08-16T15:10:21.985Z,99757.77
2018-08-16T15:12:47.936Z,99758.92
2018-08-16T15:15:13.906Z,99748.81
2018-08-16T15:17:39.863Z,99740.98
2018-08-16T15:20:05.818Z,99741.24
2018-08-16T15:22:31.788Z,99742.25
2018-08-16T15:24:57.761Z,99746.73
2018-08-16T15:27:23.716Z,99749.20
2018-08-16T15:29:49.673Z,99746.25
2018-08-16T15:32:15.682Z,99742.47
2018-08-16T15:34:41.793Z,99741.84
2018-08-16T15:37:07.755Z,99737.23
2018-08-16T15:39:33.834Z,99737.60
2018-08-16T15:41:59.760Z,99738.83
2018-08-16T15:44:25.714Z,99734.73
2018-08-16T15:46:51.656Z,99742.70
2018-08-16T15:49:18.684Z,99730.00
2018-08-16T15:51:44.629Z,99725.63
2018-08-16T15:54:10.604Z,99738.62
2018-08-16T15:56:36.555Z,99728.60
2018-08-16T15:59:02.548Z,99732.46
2018-08-16T16:01:28.478Z,99727.95
2018-08-16T16:03:54.535Z,99729.48
2018-08-16T16:06:20.622Z,99719.72
2018-08-16T16:08:46.587Z,99729.52
2018-08-16T16:11:12.555Z,99731.04
2018-08-16T16:13:38.499Z,99725.84
2018-08-16T16:16:04.436Z,99713.70
2018-08-16T16:18:30.385Z,99721.00
2018-08-16T16:20:56.394Z,99723.11
2018-08-16T16:23:22.375Z,99715.02
2018-08-16T16:25:48.401Z,99716.40
2018-08-16T16:28:14.336Z,99712.72
2018-08-16T16:30:40.317Z,99707.52
2018-08-16T16:33:06.280Z,99705.22
2018-08-16T16:35:32.311Z,99711.31
2018-08-16T16:37:58.339Z,99701.39
2018-08-16T16:40:24.283Z,99698.55
2018-08-16T16:42:50.227Z,99704.23
2018-08-16T16:45:16.192Z,99698.44
2018-08-16T16:47:42.150Z,99698.88
2018-08-16T16:50:08.105Z,99704.39
2018-08-16T16:52:34.065Z,99695.05
2018-08-16T16:54:59.988Z,99694.96
2018-08-16T16:57:25.944Z,99696.46
2018-08-16T16:59:51.881Z,99693.05
2018-08-16T17:02:17.864Z,99691.81
2018-08-16T17:04:43.810Z,99695.84
2018-08-16T17:07:09.812Z,99690.80
2018-08-16T17:09:35.764Z,99695.23
2018-08-16T17:12:01.728Z,99692.83
2018-08-16T17:14:27.682Z,99689.57
2018-08-16T17:16:53.642Z,99681.08
2018-08-16T17:19:19.569Z,99684.28
2018-08-16T17:21:45.519Z,99692.66
2018-08-16T17:24:11.476Z,99690.30
2018-08-16T17:26:37.423Z,99696.44
2018-08-16T17:29:03.382Z,99690.36
2018-08-16T17:31:29.341Z,99693.96
2018-08-16T17:33:55.282Z,99691.38
2018-08-16T17:36:21.228Z,99690.58
2018-08-16T17:38:47.179Z,99686.05
2018-08-16T17:41:13.113Z,99687.98
2018-08-16T17:43:39.077Z,99693.91
2018-08-16T17:46:05.040Z,99691.98
2018-08-16T17:48:30.998Z,99685.14
2018-08-16T17:50:56.941Z,99687.45
2018-08-16T17:53:22.941Z,99691.24
2018-08-16T17:55:48.906Z,99690.45
2018-08-16T17:58:14.853Z,99701.24
2018-08-16T18:00:40.840Z,99700.78
2018-08-16T18:03:06.786Z,99700.95
2018-08-16T18:05:32.720Z,99703.53
2018-08-16T18:07:58.704Z,99700.20
2018-08-16T18:10:24.663Z,99699.71
2018-08-16T18:12:50.632Z,99694.39
2018-08-16T18:15:17.644Z,99696.38
2018-08-16T18:17:43.592Z,99700.83
2018-08-16T18:20:09.534Z,99697.65
2018-08-16T18:22:35.500Z,99700.52
2018-08-16T18:25:01.464Z,99697.25
2018-08-16T18:27:27.434Z,99704.94
2018-08-16T18:29:53.364Z,99704.14
2018-08-16T18:32:19.325Z,99701.01
2018-08-16T18:34:45.306Z,99704.95
2018-08-16T18:37:11.241Z,99705.13
2018-08-16T18:39:37.227Z,99700.61
2018-08-16T18:42:03.194Z,99702.32
2018-08-16T18:44:29.133Z,99705.58
2018-08-16T18:46:55.083Z,99709.53
2018-08-16T18:49:21.218Z,99711.28
2018-08-16T18:51:47.177Z,99716.21
2018-08-16T18:54:13.155Z,99711.28
2018-08-16T18:56:39.141Z,99709.98
2018-08-16T18:59:05.112Z,99716.26
2018-08-16T19:01:31.074Z,99716.87
2018-08-16T19:03:57.035Z,99715.00
2018-08-16T19:06:23.026Z,99722.80
2018-08-16T19:08:48.992Z,99723.30
2018-08-16T19:11:14.929Z,99718.56
2018-08-16T19:13:40.877Z,99721.95
2018-08-16T19:16:06.861Z,99716.41
2018-08-16T19:18:33.882Z,99720.15
2018-08-16T19:20:59.824Z,99717.63
2018-08-16T19:23:25.770Z,99722.41
2018-08-16T19:25:51.716Z,99718.97
2018-08-16T19:28:17.729Z,99702.95
2018-08-16T19:30:43.680Z,99713.90
2018-08-16T19:33:09.634Z,99708.41
2018-08-16T19:35:35.686Z,99713.91
2018-08-16T19:38:01.656Z,99710.97
2018-08-16T19:40:27.690Z,99713.52
2018-08-16T19:42:53.723Z,99710.84
2018-08-16T19:45:19.655Z,99712.88
2018-08-16T19:47:45.617Z,99707.39
2018-08-16T19:50:11.589Z,99713.01
2018-08-16T19:52:37.555Z,99710.68
2018-08-16T19:55:03.543Z,99711.65
2018-08-16T19:57:29.503Z,99704.94
2018-08-16T19:59:55.458Z,99706.83
2018-08-16T20:02:21.416Z,99706.96
2018-08-16T20:04:47.384Z,99712.05
2018-08-16T20:07:13.459Z,99711.60
2018-08-16T20:09:39.383Z,99707.70
2018-08-16T20:12:05.367Z,99707.47
2018-08-16T20:14:31.334Z,99708.75
2018-08-16T20:16:57.294Z,99709.31
2018-08-16T20:19:23.256Z,99709.27
2018-08-16T20:21:49.305Z,99703.48
2018-08-16T20:24:15.387Z,99715.12
2018-08-16T20:26:41.229Z,99714.54
2018-08-16T20:29:07.202Z,99712.00
2018-08-16T20:31:33.170Z,99710.27
2018-08-16T20:33:59.122Z,99718.78
2018-08-16T20:36:25.093Z,99716.03
2018-08-16T20:38:51.139Z,99716.46
2018-08-16T20:41:17.104Z,99714.08
2018-08-16T20:43:43.089Z,99713.73
2018-08-16T20:46:09.055Z,99719.14
2018-08-16T20:48:35.010Z,99709.97
2018-08-16T20:51:00.979Z,99712.61
2018-08-16T20:53:26.965Z,99708.58
2018-08-16T20:55:52.971Z,99715.52
2018-08-16T20:58:18.914Z,99721.02
2018-08-16T21:00:44.918Z,99719.37
2018-08-16T21:03:10.858Z,99719.87
2018-08-16T21:05:36.847Z,99728.56
2018-08-16T21:08:02.797Z,99725.22
2018-08-16T21:10:28.771Z,99731.27
2018-08-16T21:12:54.715Z,99724.91
2018-08-16T21:15:20.680Z,99730.77
2018-08-16T21:17:46.618Z,99728.88
2018-08-16T21:20:12.592Z,99730.66
2018-08-16T21:22:38.652Z,99729.64
2018-08-16T21:25:04.600Z,99725.25
2018-08-16T21:27:30.573Z,99726.26
2018-08-16T21:29:56.557Z,99727.12
2018-08-16T21:32:22.488Z,99728.66
2018-08-16T21:34:48.434Z,99729.22
2018-08-16T21:37:14.402Z,99726.42
2018-08-16T21:39:40.365Z,99733.86
2018-08-16T21:42:06.349Z,99737.09
2018-08-16T21:44:32.271Z,99740.26
2018-08-16T21:46:58.210Z,99738.62
2018-08-16T21:49:24.142Z,99736.05
2018-08-16T21:51:50.076Z,99742.34
2018-08-16T21:54:16.007Z,99739.95
2018-08-16T21:56:41.978Z,99740.00
2018-08-16T21:59:07.930Z,99741.88
2018-08-16T22:01:33.867Z,99739.66
2018-08-16T22:03:59.820Z,99740.00
2018-08-16T22:06:25.777Z,99740.64
2018-08-16T22:08:51.802Z,99744.24
2018-08-16T22:11:17.778Z,99741.49
2018-08-16T22:13:43.732Z,99740.31
2018-08-16T22:16:09.677Z,99744.92
2018-08-16T22:18:35.636Z,99745.53
2018-08-16T22:21:01.576Z,99747.97
2018-08-16T22:23:27.568Z,99745.98
2018-08-16T22:25:53.511Z,99741.72
2018-08-16T22:28:19.475Z,99746.55
2018-08-16T22:30:45.428Z,99738.48
2018-08-16T22:33:11.411Z,99741.81
2018-08-16T22:35:37.345Z,99741.44
2018-08-16T22:38:03.294Z,99743.95
2018-08-16T22:40:29.237Z,99742.92
2018-08-16T22:42:55.192Z,99740.78
2018-08-16T22:45:21.149Z,99739.59
2018-08-16T22:47:47.108Z,99746.36
2018-08-16T22:50:13.063Z,99740.89
2018-08-16T22:52:39.061Z,99741.34
2018-08-16T22:55:05.009Z,99740.26
2018-08-16T22:57:30.950Z,99731.84
2018-08-16T22:59:56.894Z,99737.29
2018-08-16T23:02:22.862Z,99736.73
2018-08-16T23:04:48.793Z,99738.30
2018-08-16T23:07:14.760Z,99737.27
2018-08-16T23:09:40.737Z,99730.34
2018-08-16T23:12:06.696Z,99731.00
2018-08-16T23:14:32.638Z,99726.37
2018-08-16T23:16:58.620Z,99730.27
2018-08-16T23:19:24.550Z,99728.96
2018-08-16T23:21:50.580Z,99731.93
2018-08-16T23:24:16.603Z,99728.97
2018-08-16T23:26:42.545Z,99727.41
2018-08-16T23:29:08.472Z,99729.91
2018-08-16T23:31:34.556Z,99730.27
2018-08-16T23:34:00.513Z,99726.56
2018-08-16T23:36:26.462Z,99729.60
2018-08-16T23:38:52.401Z,99725.26
2018-08-16T23:41:18.359Z,99722.12
2018-08-16T23:43:44.293Z,99718.64
2018-08-16T23:46:10.244Z,99719.09
2018-08-16T23:48:36.176Z,99714.45
2018-08-16T23:51:02.130Z,99715.47
2018-08-16T23:53:28.093Z,99712.80
2018-08-16T23:55:54.020Z,99709.94
2018-08-16T23:58:19.952Z,99709.21
